Blue Horizon — SWPG — position and weather

sailwx.info

Track history (hours):
 
Tides and Currents Weather Stations Pressure Air Temp Water Temp Dewpoint Dewpoint Depression Visibility Wind Speed Wind Dir Waves Ship Positions

Blue Horizon

Last reported at 2018-Jun-18 20:22 UTC. Time now 2018-Jun-19 20:22 UTC.
Position N 37°19' E 023°51'.

Length 187 m; draft 6.7 m.

Type: Passenger vessel. MMSI: 239575000.

Date/timePositionNaut miles runAvg speedWind from/ knotsBaromVisibWave heightAir tempDewpointWater temp
2018-Jun-18 20:22N 37°19' E 023°51'719.0
2018-Jun-18 20:00N 37°26' E 023°48'1019.0
2018-Jun-18 19:30N 37°35' E 023°44'1019.4
2018-Jun-18 19:00N 37°44' E 023°40'918.9
2018-Jun-18 18:30N 37°53' E 023°36'4 8.1
2018-Jun-18 17:59N 37°57' E 023°38'0 0.0
2018-Jun-18 17:29N 37°57' E 023°38'0 0.0
2018-Jun-18 16:59N 37°57' E 023°38'0 0.0
2018-Jun-18 16:29N 37°57' E 023°38'0 0.0
2018-Jun-18 15:59N 37°57' E 023°38'0 0.0
2018-Jun-18 15:29N 37°57' E 023°38'0 0.0
2018-Jun-18 14:59N 37°57' E 023°38'0 0.0
2018-Jun-18 14:29N 37°57' E 023°38'0 0.0
2018-Jun-18 13:59N 37°57' E 023°38'0 0.0
2018-Jun-18 13:29N 37°57' E 023°38'0 0.0
2018-Jun-18 12:59N 37°57' E 023°38'0 0.0
2018-Jun-18 12:29N 37°57' E 023°38'0 0.0
2018-Jun-18 11:59N 37°57' E 023°38'0 0.0
2018-Jun-18 11:29N 37°57' E 023°38'0 0.0
2018-Jun-18 10:59N 37°57' E 023°38'0 0.0
2018-Jun-18 10:29N 37°57' E 023°38'0 0.0
2018-Jun-18 09:59N 37°57' E 023°38'0 0.0
2018-Jun-18 09:29N 37°57' E 023°38'0 0.0
2018-Jun-18 08:58N 37°57' E 023°38'0 0.0
2018-Jun-18 08:28N 37°57' E 023°38'0 0.0
2018-Jun-18 07:58N 37°57' E 023°38'0 0.0
2018-Jun-18 07:28N 37°57' E 023°38'0 0.0
2018-Jun-18 07:00N 37°57' E 023°38'0 0.0
2018-Jun-18 06:30N 37°57' E 023°38'0 0.0
2018-Jun-18 05:58N 37°57' E 023°38'0 0.0
2018-Jun-18 05:28N 37°57' E 023°38'0 0.0
2018-Jun-18 04:58N 37°57' E 023°38'0 0.0
2018-Jun-18 04:28N 37°57' E 023°38'0 0.0
2018-Jun-18 03:58N 37°57' E 023°38'0 0.5
2018-Jun-18 03:30N 37°57' E 023°38'5 9.7
2018-Jun-18 03:00N 37°52' E 023°39'1019.2
2018-Jun-18 02:30N 37°43' E 023°45'22 0.7
2018-Jun-16 20:08N 37°21' E 023°51'619.3
2018-Jun-16 19:48N 37°27' E 023°48'619.4
2018-Jun-16 19:31N 37°32' E 023°45'1019.6
2018-Jun-16 19:01N 37°42' E 023°40'1019.3
2018-Jun-16 18:30N 37°51' E 023°36'611.8
2018-Jun-16 17:59N 37°57' E 023°38'0 0.0
2018-Jun-16 17:29N 37°57' E 023°38'0 0.0
2018-Jun-16 16:59N 37°57' E 023°38'0 0.0
2018-Jun-16 16:29N 37°57' E 023°38'0 0.0
2018-Jun-16 15:59N 37°57' E 023°38'0 0.0
2018-Jun-16 15:29N 37°57' E 023°38'0 0.0
2018-Jun-16 14:59N 37°57' E 023°38'0 0.0
2018-Jun-16 14:28N 37°57' E 023°38'0 0.0
2018-Jun-16 13:58N 37°57' E 023°38'0 0.0
2018-Jun-16 13:28N 37°57' E 023°38'0 0.0
2018-Jun-16 12:58N 37°57' E 023°38'0 0.0
2018-Jun-16 12:28N 37°57' E 023°38'0 0.0
2018-Jun-16 11:58N 37°57' E 023°38'0 0.0
2018-Jun-16 11:28N 37°57' E 023°38'0 0.0
2018-Jun-16 10:58N 37°57' E 023°38'0 0.0
2018-Jun-16 10:28N 37°57' E 023°38'0 0.0
2018-Jun-16 09:58N 37°57' E 023°38'0 0.0
2018-Jun-16 09:28N 37°57' E 023°38'0 0.0
2018-Jun-16 08:58N 37°57' E 023°38'0 0.0
2018-Jun-16 08:28N 37°57' E 023°38'0 0.0
2018-Jun-16 07:58N 37°57' E 023°38'0 0.0
2018-Jun-16 07:28N 37°57' E 023°38'0 0.0
2018-Jun-16 06:58N 37°57' E 023°38'0 0.0
2018-Jun-16 06:28N 37°57' E 023°38'0 0.0
2018-Jun-16 05:58N 37°57' E 023°38'0 0.0
2018-Jun-16 05:28N 37°57' E 023°38'0 0.0
2018-Jun-16 04:58N 37°57' E 023°38'0 0.0
2018-Jun-16 04:28N 37°57' E 023°38'0 0.0
2018-Jun-16 03:58N 37°57' E 023°38'1 1.8
2018-Jun-16 03:30N 37°56' E 023°37'4 8.8
2018-Jun-16 03:00N 37°52' E 023°39'1019.3
2018-Jun-16 02:30N 37°43' E 023°43'1119.5
2018-Jun-16 01:58N 37°33' E 023°48'115 4.7
2018-Jun-15 01:40N 35°49' E 024°49'719.7
2018-Jun-15 01:18N 35°55' E 024°44'619.7
2018-Jun-15 01:00N 36°00' E 024°41'2119.7
2018-Jun-14 23:57N 36°18' E 024°27'919.4
2018-Jun-14 23:30N 36°26' E 024°22'1019.1
2018-Jun-14 23:00N 36°34' E 024°17'1019.4
2018-Jun-14 22:30N 36°43' E 024°12'4319.4
2018-Jun-14 20:18N 37°23' E 023°51'619.0
2018-Jun-14 20:00N 37°28' E 023°48'1019.3
2018-Jun-14 19:31N 37°36' E 023°43'1019.4
2018-Jun-14 19:00N 37°45' E 023°38'918.0
2018-Jun-14 18:30N 37°54' E 023°37'3 5.0
2018-Jun-14 17:58N 37°57' E 023°38'0 0.0
2018-Jun-14 17:28N 37°57' E 023°38'0 0.0
2018-Jun-14 16:58N 37°57' E 023°38'0 0.0
2018-Jun-14 16:28N 37°57' E 023°38'0 0.0
2018-Jun-14 15:58N 37°57' E 023°38'0 0.0
2018-Jun-14 15:28N 37°57' E 023°38'0 0.0
2018-Jun-14 14:58N 37°57' E 023°38'0 0.0
2018-Jun-14 14:28N 37°57' E 023°38'0 0.0
2018-Jun-14 13:58N 37°57' E 023°38'0 0.0
2018-Jun-14 13:28N 37°57' E 023°38'0 0.0
2018-Jun-14 12:58N 37°57' E 023°38'0 0.0
2018-Jun-14 12:28N 37°57' E 023°38'0 0.0
2018-Jun-14 11:58N 37°57' E 023°38'0 0.0
2018-Jun-14 11:28N 37°57' E 023°38'0 0.0
2018-Jun-14 10:58N 37°57' E 023°38'0 0.0
2018-Jun-14 10:28N 37°57' E 023°38'0 0.0
2018-Jun-14 09:58N 37°57' E 023°38'0 0.0
2018-Jun-14 09:28N 37°57' E 023°38'0 0.0
2018-Jun-14 09:01N 37°57' E 023°38'0 0.0
2018-Jun-14 08:15N 37°57' E 023°38'0 0.0
2018-Jun-14 08:00N 37°57' E 023°38'0 0.0
2018-Jun-14 07:30N 37°57' E 023°38'0 0.0
2018-Jun-14 06:57N 37°57' E 023°38'0 0.0
2018-Jun-14 06:06N 37°57' E 023°38'0 0.0
2018-Jun-14 05:54N 37°57' E 023°38'0 0.0
2018-Jun-14 05:30N 37°57' E 023°38'0 0.0
2018-Jun-14 05:00N 37°57' E 023°38'0 0.0
2018-Jun-14 04:30N 37°57' E 023°38'0 0.0
2018-Jun-14 03:54N 37°57' E 023°38'0 0.5
2018-Jun-14 03:31N 37°57' E 023°38'3 6.9
2018-Jun-14 03:00N 37°53' E 023°38'1019.3
2018-Jun-14 02:31N 37°44' E 023°43'1019.3
2018-Jun-14 01:59N 37°35' E 023°48'69 2.6
2018-Jun-12 23:14N 36°30' E 024°19'4919.4
2018-Jun-12 20:44N 37°15' E 023°55'1619.0
2018-Jun-12 19:54N 37°30' E 023°48'718.8
2018-Jun-12 19:30N 37°37' E 023°45'918.8
2018-Jun-12 19:00N 37°45' E 023°40'918.2
2018-Jun-12 18:30N 37°54' E 023°37'3 5.3
2018-Jun-12 17:59N 37°57' E 023°38'0 0.0
2018-Jun-12 17:29N 37°57' E 023°38'0 0.0
2018-Jun-12 16:59N 37°57' E 023°38'0 0.0
2018-Jun-12 16:29N 37°57' E 023°38'0 0.0
2018-Jun-12 15:59N 37°57' E 023°38'0 0.0
2018-Jun-12 15:29N 37°57' E 023°38'0 0.0
2018-Jun-12 14:59N 37°57' E 023°38'0 0.0
2018-Jun-12 14:29N 37°57' E 023°38'0 0.0
2018-Jun-12 13:59N 37°57' E 023°38'0 0.0
2018-Jun-12 13:29N 37°57' E 023°38'0 0.0
2018-Jun-12 12:59N 37°57' E 023°38'0 0.0
2018-Jun-12 12:29N 37°57' E 023°38'0 0.0
2018-Jun-12 11:59N 37°57' E 023°38'0 0.0
2018-Jun-12 11:29N 37°57' E 023°38'0 0.0
2018-Jun-12 10:59N 37°57' E 023°38'0 0.0
2018-Jun-12 10:29N 37°57' E 023°38'0 0.0
2018-Jun-12 09:59N 37°57' E 023°38'0 0.0
2018-Jun-12 09:29N 37°57' E 023°38'0 0.0
2018-Jun-12 08:59N 37°57' E 023°38'0 0.0
2018-Jun-12 08:29N 37°57' E 023°38'0 0.0
2018-Jun-12 07:58N 37°57' E 023°38'0 0.0
2018-Jun-12 07:28N 37°57' E 023°38'0 0.0
2018-Jun-12 06:58N 37°57' E 023°38'0 0.0
2018-Jun-12 06:28N 37°57' E 023°38'0 0.0
2018-Jun-12 05:58N 37°57' E 023°38'0 0.0
2018-Jun-12 05:28N 37°57' E 023°38'0 0.0
2018-Jun-12 04:58N 37°57' E 023°38'0 0.0
2018-Jun-12 04:28N 37°57' E 023°38'0 0.0
2018-Jun-12 03:58N 37°57' E 023°38'1 3.0
2018-Jun-12 03:31N 37°56' E 023°37'714.3
2018-Jun-12 03:01N 37°50' E 023°40'918.6
2018-Jun-12 02:31N 37°41' E 023°45'1019.0
2018-Jun-12 02:00N 37°32' E 023°49'1919.2
2018-Jun-12 01:01N 37°14' E 023°57'7418.8
2018-Jun-11 21:04N 36°06' E 024°35'118.6
2018-Jun-11 21:00N 36°05' E 024°36'2118.7
2018-Jun-11 19:52N 35°48' E 024°50'96 4.1
2018-Jun-10 20:29N 37°13' E 023°56'1920.2
2018-Jun-10 19:33N 37°30' E 023°47'120.0
2018-Jun-10 19:30N 37°31' E 023°46'1019.8
2018-Jun-10 19:00N 37°41' E 023°42'1019.8
2018-Jun-10 18:30N 37°50' E 023°37'713.3
2018-Jun-10 17:59N 37°57' E 023°38'0 0.0
2018-Jun-10 17:29N 37°57' E 023°38'0 0.0
2018-Jun-10 16:59N 37°57' E 023°38'0 0.0
2018-Jun-10 16:29N 37°57' E 023°38'0 0.0
2018-Jun-10 15:59N 37°57' E 023°38'0 0.0
2018-Jun-10 15:29N 37°57' E 023°38'0 0.0
2018-Jun-10 14:56N 37°57' E 023°38'0 0.0
2018-Jun-10 14:29N 37°57' E 023°38'0 0.0
2018-Jun-10 13:29N 37°57' E 023°38'0 0.0
2018-Jun-10 12:59N 37°57' E 023°38'0 0.0
2018-Jun-10 12:29N 37°57' E 023°38'0 0.0
2018-Jun-10 11:59N 37°57' E 023°38'0 0.0
2018-Jun-10 11:29N 37°57' E 023°38'0 0.0
2018-Jun-10 10:59N 37°57' E 023°38'0 0.0
2018-Jun-10 10:29N 37°57' E 023°38'0 0.0
2018-Jun-10 09:59N 37°57' E 023°38'0 0.0
2018-Jun-10 09:29N 37°57' E 023°38'0 0.0
2018-Jun-10 08:59N 37°57' E 023°38'0 0.0
2018-Jun-10 08:25N 37°57' E 023°38'0 0.0
2018-Jun-10 07:55N 37°57' E 023°38'0 0.0
2018-Jun-10 07:28N 37°57' E 023°38'0 0.0
2018-Jun-10 06:58N 37°57' E 023°38'0 0.0
2018-Jun-10 06:28N 37°57' E 023°38'0 0.0
2018-Jun-10 05:58N 37°57' E 023°38'0 0.0
2018-Jun-10 05:28N 37°57' E 023°38'0 0.0
2018-Jun-10 04:58N 37°57' E 023°38'0 0.0
2018-Jun-10 04:28N 37°57' E 023°38'0 0.4
2018-Jun-10 04:00N 37°57' E 023°38'3 5.3
2018-Jun-10 03:30N 37°54' E 023°38'917.1
2018-Jun-10 03:01N 37°46' E 023°42'918.2
2018-Jun-10 02:31N 37°38' E 023°46'136 5.7
2018-Jun-09 02:38N 35°35' E 024°60'619.3
2018-Jun-09 02:19N 35°40' E 024°56'619.2
2018-Jun-09 02:00N 35°45' E 024°52'1019.4
2018-Jun-09 01:30N 35°53' E 024°46'1019.5
2018-Jun-09 01:01N 36°01' E 024°39'1019.5
2018-Jun-09 00:30N 36°10' E 024°33'1019.4
2018-Jun-09 00:00N 36°18' E 024°26'919.3
2018-Jun-08 23:30N 36°26' E 024°20'919.0
2018-Jun-08 23:00N 36°34' E 024°14'1019.1
2018-Jun-08 22:30N 36°43' E 024°10'1019.1
2018-Jun-08 22:00N 36°52' E 024°05'1719.2
2018-Jun-08 21:08N 37°08' E 023°57'319.3
2018-Jun-08 20:59N 37°10' E 023°56'1119.6
2018-Jun-08 20:25N 37°21' E 023°52'  
Track history (hours):
 
Tides and Currents Weather Stations Pressure Air Temp Water Temp Dewpoint Dewpoint Depression Visibility Wind Speed Wind Dir Waves Ship Positions

Blue Horizon

Last reported at 2018-Jun-18 20:22 UTC. Time now 2018-Jun-19 20:22 UTC.
Position N 37°19' E 023°51'.

Length 187 m; draft 6.7 m.

Type: Passenger vessel. MMSI: 239575000.

Date/timePositionNaut miles runAvg speedWind from/ knotsBaromVisibWave heightAir tempDewpointWater temp
2018-Jun-18 20:22N 37°19' E 023°51'719.0
2018-Jun-18 20:00N 37°26' E 023°48'1019.0
2018-Jun-18 19:30N 37°35' E 023°44'1019.4
2018-Jun-18 19:00N 37°44' E 023°40'918.9
2018-Jun-18 18:30N 37°53' E 023°36'4 8.1
2018-Jun-18 17:59N 37°57' E 023°38'0 0.0
2018-Jun-18 17:29N 37°57' E 023°38'0 0.0
2018-Jun-18 16:59N 37°57' E 023°38'0 0.0
2018-Jun-18 16:29N 37°57' E 023°38'0 0.0
2018-Jun-18 15:59N 37°57' E 023°38'0 0.0
2018-Jun-18 15:29N 37°57' E 023°38'0 0.0
2018-Jun-18 14:59N 37°57' E 023°38'0 0.0
2018-Jun-18 14:29N 37°57' E 023°38'0 0.0
2018-Jun-18 13:59N 37°57' E 023°38'0 0.0
2018-Jun-18 13:29N 37°57' E 023°38'0 0.0
2018-Jun-18 12:59N 37°57' E 023°38'0 0.0
2018-Jun-18 12:29N 37°57' E 023°38'0 0.0
2018-Jun-18 11:59N 37°57' E 023°38'0 0.0
2018-Jun-18 11:29N 37°57' E 023°38'0 0.0
2018-Jun-18 10:59N 37°57' E 023°38'0 0.0
2018-Jun-18 10:29N 37°57' E 023°38'0 0.0
2018-Jun-18 09:59N 37°57' E 023°38'0 0.0
2018-Jun-18 09:29N 37°57' E 023°38'0 0.0
2018-Jun-18 08:58N 37°57' E 023°38'0 0.0
2018-Jun-18 08:28N 37°57' E 023°38'0 0.0
2018-Jun-18 07:58N 37°57' E 023°38'0 0.0
2018-Jun-18 07:28N 37°57' E 023°38'0 0.0
2018-Jun-18 07:00N 37°57' E 023°38'0 0.0
2018-Jun-18 06:30N 37°57' E 023°38'0 0.0
2018-Jun-18 05:58N 37°57' E 023°38'0 0.0
2018-Jun-18 05:28N 37°57' E 023°38'0 0.0
2018-Jun-18 04:58N 37°57' E 023°38'0 0.0
2018-Jun-18 04:28N 37°57' E 023°38'0 0.0
2018-Jun-18 03:58N 37°57' E 023°38'0 0.5
2018-Jun-18 03:30N 37°57' E 023°38'5 9.7
2018-Jun-18 03:00N 37°52' E 023°39'1019.2
2018-Jun-18 02:30N 37°43' E 023°45'22 0.7
2018-Jun-16 20:08N 37°21' E 023°51'619.3
2018-Jun-16 19:48N 37°27' E 023°48'619.4
2018-Jun-16 19:31N 37°32' E 023°45'1019.6
2018-Jun-16 19:01N 37°42' E 023°40'1019.3
2018-Jun-16 18:30N 37°51' E 023°36'611.8
2018-Jun-16 17:59N 37°57' E 023°38'0 0.0
2018-Jun-16 17:29N 37°57' E 023°38'0 0.0
2018-Jun-16 16:59N 37°57' E 023°38'0 0.0
2018-Jun-16 16:29N 37°57' E 023°38'0 0.0
2018-Jun-16 15:59N 37°57' E 023°38'0 0.0
2018-Jun-16 15:29N 37°57' E 023°38'0 0.0
2018-Jun-16 14:59N 37°57' E 023°38'0 0.0
2018-Jun-16 14:28N 37°57' E 023°38'0 0.0
2018-Jun-16 13:58N 37°57' E 023°38'0 0.0
2018-Jun-16 13:28N 37°57' E 023°38'0 0.0
2018-Jun-16 12:58N 37°57' E 023°38'0 0.0
2018-Jun-16 12:28N 37°57' E 023°38'0 0.0
2018-Jun-16 11:58N 37°57' E 023°38'0 0.0
2018-Jun-16 11:28N 37°57' E 023°38'0 0.0
2018-Jun-16 10:58N 37°57' E 023°38'0 0.0
2018-Jun-16 10:28N 37°57' E 023°38'0 0.0
2018-Jun-16 09:58N 37°57' E 023°38'0 0.0
2018-Jun-16 09:28N 37°57' E 023°38'0 0.0
2018-Jun-16 08:58N 37°57' E 023°38'0 0.0
2018-Jun-16 08:28N 37°57' E 023°38'0 0.0
2018-Jun-16 07:58N 37°57' E 023°38'0 0.0
2018-Jun-16 07:28N 37°57' E 023°38'0 0.0
2018-Jun-16 06:58N 37°57' E 023°38'0 0.0
2018-Jun-16 06:28N 37°57' E 023°38'0 0.0
2018-Jun-16 05:58N 37°57' E 023°38'0 0.0
2018-Jun-16 05:28N 37°57' E 023°38'0 0.0
2018-Jun-16 04:58N 37°57' E 023°38'0 0.0
2018-Jun-16 04:28N 37°57' E 023°38'0 0.0
2018-Jun-16 03:58N 37°57' E 023°38'1 1.8
2018-Jun-16 03:30N 37°56' E 023°37'4 8.8
2018-Jun-16 03:00N 37°52' E 023°39'1019.3
2018-Jun-16 02:30N 37°43' E 023°43'1119.5
2018-Jun-16 01:58N 37°33' E 023°48'115 4.7
2018-Jun-15 01:40N 35°49' E 024°49'719.7
2018-Jun-15 01:18N 35°55' E 024°44'619.7
2018-Jun-15 01:00N 36°00' E 024°41'2119.7
2018-Jun-14 23:57N 36°18' E 024°27'919.4
2018-Jun-14 23:30N 36°26' E 024°22'1019.1
2018-Jun-14 23:00N 36°34' E 024°17'1019.4
2018-Jun-14 22:30N 36°43' E 024°12'4319.4
2018-Jun-14 20:18N 37°23' E 023°51'619.0
2018-Jun-14 20:00N 37°28' E 023°48'1019.3
2018-Jun-14 19:31N 37°36' E 023°43'1019.4
2018-Jun-14 19:00N 37°45' E 023°38'918.0
2018-Jun-14 18:30N 37°54' E 023°37'3 5.0
2018-Jun-14 17:58N 37°57' E 023°38'0 0.0
2018-Jun-14 17:28N 37°57' E 023°38'0 0.0
2018-Jun-14 16:58N 37°57' E 023°38'0 0.0
2018-Jun-14 16:28N 37°57' E 023°38'0 0.0
2018-Jun-14 15:58N 37°57' E 023°38'0 0.0
2018-Jun-14 15:28N 37°57' E 023°38'0 0.0
2018-Jun-14 14:58N 37°57' E 023°38'0 0.0
2018-Jun-14 14:28N 37°57' E 023°38'0 0.0
2018-Jun-14 13:58N 37°57' E 023°38'0 0.0
2018-Jun-14 13:28N 37°57' E 023°38'0 0.0
2018-Jun-14 12:58N 37°57' E 023°38'0 0.0
2018-Jun-14 12:28N 37°57' E 023°38'0 0.0
2018-Jun-14 11:58N 37°57' E 023°38'0 0.0
2018-Jun-14 11:28N 37°57' E 023°38'0 0.0
2018-Jun-14 10:58N 37°57' E 023°38'0 0.0
2018-Jun-14 10:28N 37°57' E 023°38'0 0.0
2018-Jun-14 09:58N 37°57' E 023°38'0 0.0
2018-Jun-14 09:28N 37°57' E 023°38'0 0.0
2018-Jun-14 09:01N 37°57' E 023°38'0 0.0
2018-Jun-14 08:15N 37°57' E 023°38'0 0.0
2018-Jun-14 08:00N 37°57' E 023°38'0 0.0
2018-Jun-14 07:30N 37°57' E 023°38'0 0.0
2018-Jun-14 06:57N 37°57' E 023°38'0 0.0
2018-Jun-14 06:06N 37°57' E 023°38'0 0.0
2018-Jun-14 05:54N 37°57' E 023°38'0 0.0
2018-Jun-14 05:30N 37°57' E 023°38'0 0.0
2018-Jun-14 05:00N 37°57' E 023°38'0 0.0
2018-Jun-14 04:30N 37°57' E 023°38'0 0.0
2018-Jun-14 03:54N 37°57' E 023°38'0 0.5
2018-Jun-14 03:31N 37°57' E 023°38'3 6.9
2018-Jun-14 03:00N 37°53' E 023°38'1019.3
2018-Jun-14 02:31N 37°44' E 023°43'1019.3
2018-Jun-14 01:59N 37°35' E 023°48'69 2.6
2018-Jun-12 23:14N 36°30' E 024°19'4919.4
2018-Jun-12 20:44N 37°15' E 023°55'1619.0
2018-Jun-12 19:54N 37°30' E 023°48'718.8
2018-Jun-12 19:30N 37°37' E 023°45'918.8
2018-Jun-12 19:00N 37°45' E 023°40'918.2
2018-Jun-12 18:30N 37°54' E 023°37'3 5.3
2018-Jun-12 17:59N 37°57' E 023°38'0 0.0
2018-Jun-12 17:29N 37°57' E 023°38'0 0.0
2018-Jun-12 16:59N 37°57' E 023°38'0 0.0
2018-Jun-12 16:29N 37°57' E 023°38'0 0.0
2018-Jun-12 15:59N 37°57' E 023°38'0 0.0
2018-Jun-12 15:29N 37°57' E 023°38'0 0.0
2018-Jun-12 14:59N 37°57' E 023°38'0 0.0
2018-Jun-12 14:29N 37°57' E 023°38'0 0.0
2018-Jun-12 13:59N 37°57' E 023°38'0 0.0
2018-Jun-12 13:29N 37°57' E 023°38'0 0.0
2018-Jun-12 12:59N 37°57' E 023°38'0 0.0
2018-Jun-12 12:29N 37°57' E 023°38'0 0.0
2018-Jun-12 11:59N 37°57' E 023°38'0 0.0
2018-Jun-12 11:29N 37°57' E 023°38'0 0.0
2018-Jun-12 10:59N 37°57' E 023°38'0 0.0
2018-Jun-12 10:29N 37°57' E 023°38'0 0.0
2018-Jun-12 09:59N 37°57' E 023°38'0 0.0
2018-Jun-12 09:29N 37°57' E 023°38'0 0.0
2018-Jun-12 08:59N 37°57' E 023°38'0 0.0
2018-Jun-12 08:29N 37°57' E 023°38'0 0.0
2018-Jun-12 07:58N 37°57' E 023°38'0 0.0
2018-Jun-12 07:28N 37°57' E 023°38'0 0.0
2018-Jun-12 06:58N 37°57' E 023°38'0 0.0
2018-Jun-12 06:28N 37°57' E 023°38'0 0.0
2018-Jun-12 05:58N 37°57' E 023°38'0 0.0
2018-Jun-12 05:28N 37°57' E 023°38'0 0.0
2018-Jun-12 04:58N 37°57' E 023°38'0 0.0
2018-Jun-12 04:28N 37°57' E 023°38'0 0.0
2018-Jun-12 03:58N 37°57' E 023°38'1 3.0
2018-Jun-12 03:31N 37°56' E 023°37'714.3
2018-Jun-12 03:01N 37°50' E 023°40'918.6
2018-Jun-12 02:31N 37°41' E 023°45'1019.0
2018-Jun-12 02:00N 37°32' E 023°49'1919.2
2018-Jun-12 01:01N 37°14' E 023°57'7418.8
2018-Jun-11 21:04N 36°06' E 024°35'118.6
2018-Jun-11 21:00N 36°05' E 024°36'2118.7
2018-Jun-11 19:52N 35°48' E 024°50'96 4.1
2018-Jun-10 20:29N 37°13' E 023°56'1920.2
2018-Jun-10 19:33N 37°30' E 023°47'120.0
2018-Jun-10 19:30N 37°31' E 023°46'1019.8
2018-Jun-10 19:00N 37°41' E 023°42'1019.8
2018-Jun-10 18:30N 37°50' E 023°37'713.3
2018-Jun-10 17:59N 37°57' E 023°38'0 0.0
2018-Jun-10 17:29N 37°57' E 023°38'0 0.0
2018-Jun-10 16:59N 37°57' E 023°38'0 0.0
2018-Jun-10 16:29N 37°57' E 023°38'0 0.0
2018-Jun-10 15:59N 37°57' E 023°38'0 0.0
2018-Jun-10 15:29N 37°57' E 023°38'0 0.0
2018-Jun-10 14:56N 37°57' E 023°38'0 0.0
2018-Jun-10 14:29N 37°57' E 023°38'0 0.0
2018-Jun-10 13:29N 37°57' E 023°38'0 0.0
2018-Jun-10 12:59N 37°57' E 023°38'0 0.0
2018-Jun-10 12:29N 37°57' E 023°38'0 0.0
2018-Jun-10 11:59N 37°57' E 023°38'0 0.0
2018-Jun-10 11:29N 37°57' E 023°38'0 0.0
2018-Jun-10 10:59N 37°57' E 023°38'0 0.0
2018-Jun-10 10:29N 37°57' E 023°38'0 0.0
2018-Jun-10 09:59N 37°57' E 023°38'0 0.0
2018-Jun-10 09:29N 37°57' E 023°38'0 0.0
2018-Jun-10 08:59N 37°57' E 023°38'0 0.0
2018-Jun-10 08:25N 37°57' E 023°38'0 0.0
2018-Jun-10 07:55N 37°57' E 023°38'0 0.0
2018-Jun-10 07:28N 37°57' E 023°38'0 0.0
2018-Jun-10 06:58N 37°57' E 023°38'0 0.0
2018-Jun-10 06:28N 37°57' E 023°38'0 0.0
2018-Jun-10 05:58N 37°57' E 023°38'0 0.0
2018-Jun-10 05:28N 37°57' E 023°38'0 0.0
2018-Jun-10 04:58N 37°57' E 023°38'0 0.0
2018-Jun-10 04:28N 37°57' E 023°38'0 0.4
2018-Jun-10 04:00N 37°57' E 023°38'3 5.3
2018-Jun-10 03:30N 37°54' E 023°38'917.1
2018-Jun-10 03:01N 37°46' E 023°42'918.2
2018-Jun-10 02:31N 37°38' E 023°46'136 5.7
2018-Jun-09 02:38N 35°35' E 024°60'619.3
2018-Jun-09 02:19N 35°40' E 024°56'619.2
2018-Jun-09 02:00N 35°45' E 024°52'1019.4
2018-Jun-09 01:30N 35°53' E 024°46'1019.5
2018-Jun-09 01:01N 36°01' E 024°39'1019.5
2018-Jun-09 00:30N 36°10' E 024°33'1019.4
2018-Jun-09 00:00N 36°18' E 024°26'919.3
2018-Jun-08 23:30N 36°26' E 024°20'919.0
2018-Jun-08 23:00N 36°34' E 024°14'1019.1
2018-Jun-08 22:30N 36°43' E 024°10'1019.1
2018-Jun-08 22:00N 36°52' E 024°05'1719.2
2018-Jun-08 21:08N 37°08' E 023°57'319.3
2018-Jun-08 20:59N 37°10' E 023°56'1119.6
2018-Jun-08 20:25N 37°21' E 023°52'  

Dump ship's entire track history